sensor_id;sensor_type;location;lat;lon;timestamp;P1;durP1;ratioP1;P2;durP2;ratioP2
55146;SDS011;41039;49.830;23.988;2022-07-03T00:01:43;7.93;;;6.88;;
55146;SDS011;41039;49.830;23.988;2022-07-03T00:04:08;7.57;;;6.87;;
55146;SDS011;41039;49.830;23.988;2022-07-03T00:06:34;9.30;;;8.38;;
55146;SDS011;41039;49.830;23.988;2022-07-03T00:09:00;47.78;;;43.03;;
55146;SDS011;41039;49.830;23.988;2022-07-03T00:11:26;26.73;;;24.00;;
55146;SDS011;41039;49.830;23.988;2022-07-03T00:13:51;12.95;;;10.82;;
55146;SDS011;41039;49.830;23.988;2022-07-03T00:16:16;14.25;;;12.75;;
55146;SDS011;41039;49.830;23.988;2022-07-03T00:18:42;10.00;;;8.70;;
55146;SDS011;41039;49.830;23.988;2022-07-03T00:21:08;8.32;;;7.53;;
55146;SDS011;41039;49.830;23.988;2022-07-03T00:23:38;8.25;;;6.57;;
55146;SDS011;41039;49.830;23.988;2022-07-03T00:26:04;9.98;;;8.15;;
55146;SDS011;41039;49.830;23.988;2022-07-03T00:28:30;9.98;;;7.40;;
55146;SDS011;41039;49.830;23.988;2022-07-03T00:30:56;18.02;;;14.90;;
55146;SDS011;41039;49.830;23.988;2022-07-03T00:33:22;23.70;;;21.27;;
55146;SDS011;41039;49.830;23.988;2022-07-03T00:35:49;12.32;;;11.02;;
55146;SDS011;41039;49.830;23.988;2022-07-03T00:38:17;10.15;;;8.65;;
55146;SDS011;41039;49.830;23.988;2022-07-03T00:40:43;9.52;;;8.18;;
55146;SDS011;41039;49.830;23.988;2022-07-03T00:43:08;9.98;;;8.55;;
55146;SDS011;41039;49.830;23.988;2022-07-03T00:45:34;33.28;;;29.85;;
55146;SDS011;41039;49.830;23.988;2022-07-03T00:48:00;16.52;;;14.57;;
55146;SDS011;41039;49.830;23.988;2022-07-03T00:50:26;10.15;;;9.10;;
55146;SDS011;41039;49.830;23.988;2022-07-03T00:52:58;12.10;;;9.65;;
55146;SDS011;41039;49.830;23.988;2022-07-03T00:55:23;15.00;;;13.38;;
55146;SDS011;41039;49.830;23.988;2022-07-03T00:57:51;38.08;;;34.08;;
55146;SDS011;41039;49.830;23.988;2022-07-03T01:00:19;86.88;;;77.95;;
55146;SDS011;41039;49.830;23.988;2022-07-03T01:10:18;10.68;;;9.02;;
55146;SDS011;41039;49.830;23.988;2022-07-03T01:15:18;13.32;;;11.93;;
55146;SDS011;41039;49.830;23.988;2022-07-03T01:17:48;50.97;;;44.75;;
55146;SDS011;41039;49.830;23.988;2022-07-03T01:20:17;16.38;;;14.27;;
55146;SDS011;41039;49.830;23.988;2022-07-03T01:22:48;10.40;;;8.63;;
55146;SDS011;41039;49.830;23.988;2022-07-03T01:30:12;11.65;;;10.43;;
55146;SDS011;41039;49.830;23.988;2022-07-03T01:32:47;12.27;;;10.98;;
55146;SDS011;41039;49.830;23.988;2022-07-03T01:35:21;9.27;;;7.78;;
55146;SDS011;41039;49.830;23.988;2022-07-03T01:37:46;26.70;;;23.67;;
55146;SDS011;41039;49.830;23.988;2022-07-03T01:40:12;11.73;;;9.70;;
55146;SDS011;41039;49.830;23.988;2022-07-03T01:42:39;8.23;;;7.35;;
55146;SDS011;41039;49.830;23.988;2022-07-03T01:45:08;13.20;;;11.80;;
55146;SDS011;41039;49.830;23.988;2022-07-03T01:47:34;11.15;;;10.05;;
55146;SDS011;41039;49.830;23.988;2022-07-03T01:49:59;11.50;;;10.30;;
55146;SDS011;41039;49.830;23.988;2022-07-03T01:52:25;12.65;;;11.35;;
55146;SDS011;41039;49.830;23.988;2022-07-03T01:54:51;13.85;;;12.23;;
55146;SDS011;41039;49.830;23.988;2022-07-03T01:57:16;9.93;;;8.93;;
55146;SDS011;41039;49.830;23.988;2022-07-03T01:59:41;10.95;;;9.43;;
55146;SDS011;41039;49.830;23.988;2022-07-03T02:10:05;31.98;;;28.80;;
55146;SDS011;41039;49.830;23.988;2022-07-03T02:12:45;12.50;;;11.23;;
55146;SDS011;41039;49.830;23.988;2022-07-03T02:15:12;10.85;;;9.52;;
55146;SDS011;41039;49.830;23.988;2022-07-03T02:17:45;10.23;;;8.43;;
55146;SDS011;41039;49.830;23.988;2022-07-03T02:20:10;7.88;;;6.90;;
55146;SDS011;41039;49.830;23.988;2022-07-03T02:25:05;8.43;;;7.45;;
55146;SDS011;41039;49.830;23.988;2022-07-03T02:27:32;9.25;;;8.02;;
55146;SDS011;41039;49.830;23.988;2022-07-03T02:30:04;21.73;;;19.48;;
55146;SDS011;41039;49.830;23.988;2022-07-03T02:32:30;14.27;;;12.65;;
55146;SDS011;41039;49.830;23.988;2022-07-03T02:35:02;10.80;;;9.70;;
55146;SDS011;41039;49.830;23.988;2022-07-03T02:37:28;8.65;;;7.75;;
55146;SDS011;41039;49.830;23.988;2022-07-03T02:40:00;11.77;;;9.95;;
55146;SDS011;41039;49.830;23.988;2022-07-03T02:42:47;8.20;;;7.35;;
55146;SDS011;41039;49.830;23.988;2022-07-03T02:45:15;9.02;;;8.23;;
55146;SDS011;41039;49.830;23.988;2022-07-03T02:47:47;10.73;;;9.73;;
55146;SDS011;41039;49.830;23.988;2022-07-03T02:50:16;12.95;;;11.65;;
55146;SDS011;41039;49.830;23.988;2022-07-03T02:52:42;23.33;;;21.13;;
55146;SDS011;41039;49.830;23.988;2022-07-03T02:57:41;25.17;;;22.45;;
55146;SDS011;41039;49.830;23.988;2022-07-03T03:00:10;30.60;;;25.27;;
55146;SDS011;41039;49.830;23.988;2022-07-03T03:05:09;49.28;;;41.58;;
55146;SDS011;41039;49.830;23.988;2022-07-03T03:08:24;15.02;;;11.30;;
55146;SDS011;41039;49.830;23.988;2022-07-03T03:10:22;21.27;;;18.98;;
55146;SDS011;41039;49.830;23.988;2022-07-03T03:12:51;14.05;;;12.63;;
55146;SDS011;41039;49.830;23.988;2022-07-03T03:15:18;18.15;;;16.30;;
55146;SDS011;41039;49.830;23.988;2022-07-03T03:17:47;23.58;;;21.13;;
55146;SDS011;41039;49.830;23.988;2022-07-03T03:20:14;36.58;;;32.80;;
55146;SDS011;41039;49.830;23.988;2022-07-03T03:25:12;16.15;;;13.25;;
55146;SDS011;41039;49.830;23.988;2022-07-03T03:27:37;22.63;;;20.33;;
55146;SDS011;41039;49.830;23.988;2022-07-03T03:30:03;41.72;;;37.22;;
55146;SDS011;41039;49.830;23.988;2022-07-03T03:32:31;10.80;;;9.57;;
55146;SDS011;41039;49.830;23.988;2022-07-03T03:34:56;12.10;;;10.82;;
55146;SDS011;41039;49.830;23.988;2022-07-03T03:37:21;13.27;;;11.63;;
55146;SDS011;41039;49.830;23.988;2022-07-03T03:39:47;10.20;;;8.90;;
55146;SDS011;41039;49.830;23.988;2022-07-03T03:42:12;8.77;;;7.78;;
55146;SDS011;41039;49.830;23.988;2022-07-03T03:44:38;9.33;;;8.33;;
55146;SDS011;41039;49.830;23.988;2022-07-03T03:47:03;16.38;;;14.68;;
55146;SDS011;41039;49.830;23.988;2022-07-03T03:49:28;14.57;;;12.75;;
55146;SDS011;41039;49.830;23.988;2022-07-03T03:51:55;23.17;;;20.75;;
55146;SDS011;41039;49.830;23.988;2022-07-03T03:54:21;15.10;;;13.57;;
55146;SDS011;41039;49.830;23.988;2022-07-03T03:56:46;38.20;;;34.50;;
55146;SDS011;41039;49.830;23.988;2022-07-03T03:59:11;33.43;;;30.23;;
55146;SDS011;41039;49.830;23.988;2022-07-03T04:01:37;31.95;;;28.80;;
55146;SDS011;41039;49.830;23.988;2022-07-03T04:04:02;77.77;;;69.77;;
55146;SDS011;41039;49.830;23.988;2022-07-03T04:06:27;72.28;;;61.88;;
55146;SDS011;41039;49.830;23.988;2022-07-03T04:08:52;31.20;;;26.10;;
55146;SDS011;41039;49.830;23.988;2022-07-03T04:11:18;36.30;;;31.13;;
55146;SDS011;41039;49.830;23.988;2022-07-03T04:13:43;18.08;;;15.70;;
55146;SDS011;41039;49.830;23.988;2022-07-03T04:16:08;11.77;;;10.13;;
55146;SDS011;41039;49.830;23.988;2022-07-03T04:18:34;10.40;;;9.27;;
55146;SDS011;41039;49.830;23.988;2022-07-03T04:21:00;9.68;;;8.32;;
55146;SDS011;41039;49.830;23.988;2022-07-03T04:23:25;13.48;;;10.75;;
55146;SDS011;41039;49.830;23.988;2022-07-03T04:25:50;11.57;;;9.38;;
55146;SDS011;41039;49.830;23.988;2022-07-03T04:28:15;11.10;;;8.30;;
55146;SDS011;41039;49.830;23.988;2022-07-03T04:30:41;9.85;;;8.52;;
55146;SDS011;41039;49.830;23.988;2022-07-03T04:33:06;11.00;;;8.90;;
55146;SDS011;41039;49.830;23.988;2022-07-03T04:35:31;12.02;;;9.10;;
55146;SDS011;41039;49.830;23.988;2022-07-03T04:37:57;9.98;;;8.02;;
55146;SDS011;41039;49.830;23.988;2022-07-03T04:40:22;9.93;;;8.43;;
55146;SDS011;41039;49.830;23.988;2022-07-03T04:42:47;10.45;;;8.90;;
55146;SDS011;41039;49.830;23.988;2022-07-03T04:45:12;10.73;;;9.63;;
55146;SDS011;41039;49.830;23.988;2022-07-03T04:47:38;10.40;;;8.95;;
55146;SDS011;41039;49.830;23.988;2022-07-03T04:50:03;10.35;;;9.23;;
55146;SDS011;41039;49.830;23.988;2022-07-03T04:52:29;9.68;;;8.68;;
55146;SDS011;41039;49.830;23.988;2022-07-03T04:54:54;10.47;;;8.97;;
55146;SDS011;41039;49.830;23.988;2022-07-03T04:57:19;8.57;;;7.57;;
55146;SDS011;41039;49.830;23.988;2022-07-03T04:59:44;8.90;;;8.00;;
55146;SDS011;41039;49.830;23.988;2022-07-03T05:02:11;11.27;;;7.93;;
55146;SDS011;41039;49.830;23.988;2022-07-03T05:04:36;10.32;;;7.75;;
55146;SDS011;41039;49.830;23.988;2022-07-03T05:07:01;8.17;;;7.37;;
55146;SDS011;41039;49.830;23.988;2022-07-03T05:09:27;9.50;;;7.93;;
55146;SDS011;41039;49.830;23.988;2022-07-03T05:11:52;8.73;;;7.20;;
55146;SDS011;41039;49.830;23.988;2022-07-03T05:14:17;9.35;;;7.75;;
55146;SDS011;41039;49.830;23.988;2022-07-03T05:16:43;8.38;;;7.50;;
55146;SDS011;41039;49.830;23.988;2022-07-03T05:19:08;7.57;;;6.87;;
55146;SDS011;41039;49.830;23.988;2022-07-03T05:21:33;9.23;;;8.27;;
55146;SDS011;41039;49.830;23.988;2022-07-03T05:23:58;8.98;;;7.88;;
55146;SDS011;41039;49.830;23.988;2022-07-03T05:26:23;8.03;;;6.47;;
55146;SDS011;41039;49.830;23.988;2022-07-03T05:28:49;9.87;;;6.67;;
55146;SDS011;41039;49.830;23.988;2022-07-03T05:31:14;8.90;;;7.82;;
55146;SDS011;41039;49.830;23.988;2022-07-03T05:33:39;8.10;;;6.82;;
55146;SDS011;41039;49.830;23.988;2022-07-03T05:36:04;8.55;;;7.20;;
55146;SDS011;41039;49.830;23.988;2022-07-03T05:38:30;7.45;;;6.60;;
55146;SDS011;41039;49.830;23.988;2022-07-03T05:41:14;8.63;;;7.05;;
55146;SDS011;41039;49.830;23.988;2022-07-03T05:43:39;8.47;;;6.93;;
55146;SDS011;41039;49.830;23.988;2022-07-03T05:46:05;9.55;;;6.97;;
55146;SDS011;41039;49.830;23.988;2022-07-03T05:48:30;8.10;;;6.53;;
55146;SDS011;41039;49.830;23.988;2022-07-03T05:50:55;6.30;;;5.70;;
55146;SDS011;41039;49.830;23.988;2022-07-03T05:53:21;7.53;;;5.80;;
55146;SDS011;41039;49.830;23.988;2022-07-03T05:55:46;8.10;;;5.90;;
55146;SDS011;41039;49.830;23.988;2022-07-03T05:58:11;7.83;;;5.63;;
55146;SDS011;41039;49.830;23.988;2022-07-03T06:00:37;8.73;;;5.05;;
55146;SDS011;41039;49.830;23.988;2022-07-03T06:03:02;6.45;;;5.05;;
55146;SDS011;41039;49.830;23.988;2022-07-03T06:05:28;5.97;;;5.30;;
55146;SDS011;41039;49.830;23.988;2022-07-03T06:07:53;7.28;;;5.30;;
55146;SDS011;41039;49.830;23.988;2022-07-03T06:10:18;6.43;;;5.25;;
55146;SDS011;41039;49.830;23.988;2022-07-03T06:12:43;9.33;;;6.23;;
55146;SDS011;41039;49.830;23.988;2022-07-03T06:15:09;6.90;;;6.20;;
55146;SDS011;41039;49.830;23.988;2022-07-03T06:17:35;6.68;;;5.22;;
55146;SDS011;41039;49.830;23.988;2022-07-03T06:20:01;6.18;;;5.50;;
55146;SDS011;41039;49.830;23.988;2022-07-03T06:22:26;7.07;;;5.82;;
55146;SDS011;41039;49.830;23.988;2022-07-03T06:24:51;6.60;;;4.95;;
55146;SDS011;41039;49.830;23.988;2022-07-03T06:27:18;7.38;;;5.18;;
55146;SDS011;41039;49.830;23.988;2022-07-03T06:29:43;6.70;;;5.90;;
55146;SDS011;41039;49.830;23.988;2022-07-03T06:32:08;7.30;;;6.20;;
55146;SDS011;41039;49.830;23.988;2022-07-03T06:34:33;7.07;;;5.77;;
55146;SDS011;41039;49.830;23.988;2022-07-03T06:36:58;7.43;;;6.20;;
55146;SDS011;41039;49.830;23.988;2022-07-03T06:39:24;5.23;;;4.57;;
55146;SDS011;41039;49.830;23.988;2022-07-03T06:41:49;7.03;;;5.05;;
55146;SDS011;41039;49.830;23.988;2022-07-03T06:44:14;5.70;;;4.60;;
55146;SDS011;41039;49.830;23.988;2022-07-03T06:46:39;6.13;;;4.82;;
55146;SDS011;41039;49.830;23.988;2022-07-03T06:49:05;4.57;;;3.90;;
55146;SDS011;41039;49.830;23.988;2022-07-03T06:51:30;4.80;;;4.30;;
55146;SDS011;41039;49.830;23.988;2022-07-03T06:53:55;5.67;;;5.03;;
55146;SDS011;41039;49.830;23.988;2022-07-03T06:56:21;5.93;;;5.20;;
55146;SDS011;41039;49.830;23.988;2022-07-03T06:58:46;4.95;;;4.45;;
55146;SDS011;41039;49.830;23.988;2022-07-03T07:01:11;5.50;;;4.90;;
55146;SDS011;41039;49.830;23.988;2022-07-03T07:03:37;3.90;;;3.50;;
55146;SDS011;41039;49.830;23.988;2022-07-03T07:06:02;6.50;;;4.27;;
55146;SDS011;41039;49.830;23.988;2022-07-03T07:08:27;4.95;;;3.83;;
55146;SDS011;41039;49.830;23.988;2022-07-03T07:10:52;5.32;;;4.30;;
55146;SDS011;41039;49.830;23.988;2022-07-03T07:13:18;5.72;;;4.45;;
55146;SDS011;41039;49.830;23.988;2022-07-03T07:15:43;4.90;;;4.30;;
55146;SDS011;41039;49.830;23.988;2022-07-03T07:18:08;5.33;;;3.80;;
55146;SDS011;41039;49.830;23.988;2022-07-03T07:20:33;4.80;;;4.30;;
55146;SDS011;41039;49.830;23.988;2022-07-03T07:22:59;4.78;;;4.05;;
55146;SDS011;41039;49.830;23.988;2022-07-03T07:25:24;5.07;;;3.87;;
55146;SDS011;41039;49.830;23.988;2022-07-03T07:27:49;3.77;;;3.13;;
55146;SDS011;41039;49.830;23.988;2022-07-03T07:30:14;7.40;;;3.50;;
55146;SDS011;41039;49.830;23.988;2022-07-03T07:32:40;4.67;;;3.33;;
55146;SDS011;41039;49.830;23.988;2022-07-03T07:35:05;5.53;;;3.33;;
55146;SDS011;41039;49.830;23.988;2022-07-03T07:37:30;5.30;;;3.97;;
55146;SDS011;41039;49.830;23.988;2022-07-03T07:39:56;4.28;;;3.88;;
55146;SDS011;41039;49.830;23.988;2022-07-03T07:42:21;4.20;;;3.47;;
55146;SDS011;41039;49.830;23.988;2022-07-03T07:44:46;5.73;;;3.50;;
55146;SDS011;41039;49.830;23.988;2022-07-03T07:47:11;5.47;;;3.93;;
55146;SDS011;41039;49.830;23.988;2022-07-03T07:49:36;4.65;;;3.80;;
55146;SDS011;41039;49.830;23.988;2022-07-03T07:52:02;4.07;;;3.13;;
55146;SDS011;41039;49.830;23.988;2022-07-03T07:54:27;5.95;;;2.97;;
55146;SDS011;41039;49.830;23.988;2022-07-03T07:56:54;3.15;;;2.85;;
55146;SDS011;41039;49.830;23.988;2022-07-03T07:59:19;4.57;;;3.70;;
55146;SDS011;41039;49.830;23.988;2022-07-03T08:01:44;4.33;;;3.57;;
55146;SDS011;41039;49.830;23.988;2022-07-03T08:04:32;7.22;;;3.35;;
55146;SDS011;41039;49.830;23.988;2022-07-03T08:07:16;3.92;;;2.30;;
55146;SDS011;41039;49.830;23.988;2022-07-03T08:09:42;4.20;;;3.00;;
55146;SDS011;41039;49.830;23.988;2022-07-03T08:12:07;3.60;;;2.38;;
55146;SDS011;41039;49.830;23.988;2022-07-03T08:14:32;4.55;;;3.08;;
55146;SDS011;41039;49.830;23.988;2022-07-03T08:16:58;6.03;;;3.17;;
55146;SDS011;41039;49.830;23.988;2022-07-03T08:19:23;5.38;;;3.42;;
55146;SDS011;41039;49.830;23.988;2022-07-03T08:21:48;5.83;;;3.13;;
55146;SDS011;41039;49.830;23.988;2022-07-03T08:24:13;5.13;;;3.28;;
55146;SDS011;41039;49.830;23.988;2022-07-03T08:26:41;9.18;;;4.25;;
55146;SDS011;41039;49.830;23.988;2022-07-03T08:29:06;5.45;;;3.65;;
55146;SDS011;41039;49.830;23.988;2022-07-03T08:31:31;7.43;;;3.30;;
55146;SDS011;41039;49.830;23.988;2022-07-03T08:33:56;4.53;;;2.83;;
55146;SDS011;41039;49.830;23.988;2022-07-03T08:36:22;6.30;;;3.93;;
55146;SDS011;41039;49.830;23.988;2022-07-03T08:38:47;5.23;;;3.40;;
55146;SDS011;41039;49.830;23.988;2022-07-03T08:41:12;5.15;;;3.42;;
55146;SDS011;41039;49.830;23.988;2022-07-03T08:43:37;5.93;;;3.23;;
55146;SDS011;41039;49.830;23.988;2022-07-03T08:46:03;5.13;;;2.78;;
55146;SDS011;41039;49.830;23.988;2022-07-03T08:48:30;5.82;;;3.65;;
55146;SDS011;41039;49.830;23.988;2022-07-03T08:50:57;5.05;;;3.55;;
55146;SDS011;41039;49.830;23.988;2022-07-03T08:53:23;4.88;;;3.30;;
55146;SDS011;41039;49.830;23.988;2022-07-03T08:55:49;5.90;;;3.28;;
55146;SDS011;41039;49.830;23.988;2022-07-03T08:58:14;6.35;;;3.83;;
55146;SDS011;41039;49.830;23.988;2022-07-03T09:00:40;4.97;;;3.20;;
55146;SDS011;41039;49.830;23.988;2022-07-03T09:03:09;4.85;;;3.28;;
55146;SDS011;41039;49.830;23.988;2022-07-03T09:05:34;5.32;;;3.78;;
55146;SDS011;41039;49.830;23.988;2022-07-03T09:08:00;8.32;;;3.28;;
55146;SDS011;41039;49.830;23.988;2022-07-03T09:10:25;6.15;;;3.53;;
55146;SDS011;41039;49.830;23.988;2022-07-03T09:12:51;4.80;;;3.53;;
55146;SDS011;41039;49.830;23.988;2022-07-03T09:15:16;4.73;;;3.47;;
55146;SDS011;41039;49.830;23.988;2022-07-03T09:17:58;4.22;;;3.70;;
55146;SDS011;41039;49.830;23.988;2022-07-03T09:20:27;4.03;;;3.35;;
55146;SDS011;41039;49.830;23.988;2022-07-03T09:22:53;5.43;;;3.70;;
55146;SDS011;41039;49.830;23.988;2022-07-03T09:25:18;5.03;;;3.40;;
55146;SDS011;41039;49.830;23.988;2022-07-03T09:27:50;8.47;;;7.33;;
55146;SDS011;41039;49.830;23.988;2022-07-03T09:30:16;5.78;;;4.15;;
55146;SDS011;41039;49.830;23.988;2022-07-03T09:35:23;4.93;;;3.53;;
55146;SDS011;41039;49.830;23.988;2022-07-03T09:37:50;16.45;;;5.00;;
55146;SDS011;41039;49.830;23.988;2022-07-03T09:40:16;5.32;;;3.30;;
55146;SDS011;41039;49.830;23.988;2022-07-03T09:42:56;6.22;;;4.13;;
55146;SDS011;41039;49.830;23.988;2022-07-03T09:45:21;4.88;;;3.90;;
55146;SDS011;41039;49.830;23.988;2022-07-03T09:47:46;4.53;;;3.70;;
55146;SDS011;41039;49.830;23.988;2022-07-03T09:50:12;5.63;;;3.33;;
55146;SDS011;41039;49.830;23.988;2022-07-03T09:52:39;4.80;;;4.07;;
55146;SDS011;41039;49.830;23.988;2022-07-03T09:57:33;7.65;;;4.47;;
55146;SDS011;41039;49.830;23.988;2022-07-03T10:00:40;5.27;;;3.80;;
55146;SDS011;41039;49.830;23.988;2022-07-03T10:05:18;4.38;;;3.50;;
55146;SDS011;41039;49.830;23.988;2022-07-03T10:10:42;3.72;;;3.17;;
55146;SDS011;41039;49.830;23.988;2022-07-03T10:13:07;4.60;;;3.72;;
55146;SDS011;41039;49.830;23.988;2022-07-03T10:15:33;3.83;;;3.43;;
55146;SDS011;41039;49.830;23.988;2022-07-03T10:18:01;4.07;;;3.17;;
55146;SDS011;41039;49.830;23.988;2022-07-03T10:20:31;7.90;;;3.70;;
55146;SDS011;41039;49.830;23.988;2022-07-03T10:22:58;6.63;;;4.40;;
55146;SDS011;41039;49.830;23.988;2022-07-03T10:25:24;6.15;;;3.67;;
55146;SDS011;41039;49.830;23.988;2022-07-03T10:27:49;5.17;;;3.40;;
55146;SDS011;41039;49.830;23.988;2022-07-03T10:30:15;3.78;;;3.10;;
55146;SDS011;41039;49.830;23.988;2022-07-03T10:32:42;3.53;;;2.75;;
55146;SDS011;41039;49.830;23.988;2022-07-03T10:35:08;4.70;;;3.40;;
55146;SDS011;41039;49.830;23.988;2022-07-03T10:40:30;5.32;;;3.40;;
55146;SDS011;41039;49.830;23.988;2022-07-03T10:43:25;3.60;;;2.97;;
55146;SDS011;41039;49.830;23.988;2022-07-03T10:51:15;4.43;;;3.53;;
55146;SDS011;41039;49.830;23.988;2022-07-03T10:53:40;4.73;;;3.43;;
55146;SDS011;41039;49.830;23.988;2022-07-03T10:56:05;5.53;;;3.50;;
55146;SDS011;41039;49.830;23.988;2022-07-03T10:58:31;3.63;;;3.23;;
55146;SDS011;41039;49.830;23.988;2022-07-03T11:00:56;4.40;;;3.10;;
55146;SDS011;41039;49.830;23.988;2022-07-03T11:06:07;6.32;;;3.38;;
55146;SDS011;41039;49.830;23.988;2022-07-03T11:08:32;4.20;;;3.03;;
55146;SDS011;41039;49.830;23.988;2022-07-03T11:11:33;3.72;;;3.20;;
55146;SDS011;41039;49.830;23.988;2022-07-03T11:14:18;4.13;;;3.40;;
55146;SDS011;41039;49.830;23.988;2022-07-03T11:16:45;4.45;;;3.33;;
55146;SDS011;41039;49.830;23.988;2022-07-03T11:19:10;4.70;;;3.28;;
55146;SDS011;41039;49.830;23.988;2022-07-03T11:21:36;4.95;;;3.50;;
55146;SDS011;41039;49.830;23.988;2022-07-03T11:24:09;4.25;;;3.67;;
55146;SDS011;41039;49.830;23.988;2022-07-03T11:26:37;5.82;;;3.90;;
55146;SDS011;41039;49.830;23.988;2022-07-03T11:29:03;4.45;;;3.55;;
55146;SDS011;41039;49.830;23.988;2022-07-03T11:31:28;7.25;;;3.83;;
55146;SDS011;41039;49.830;23.988;2022-07-03T11:41:24;5.97;;;3.70;;
55146;SDS011;41039;49.830;23.988;2022-07-03T11:43:51;3.83;;;3.35;;
55146;SDS011;41039;49.830;23.988;2022-07-03T11:46:17;4.50;;;3.38;;
55146;SDS011;41039;49.830;23.988;2022-07-03T11:48:42;4.20;;;3.40;;
55146;SDS011;41039;49.830;23.988;2022-07-03T11:51:07;5.70;;;3.90;;
55146;SDS011;41039;49.830;23.988;2022-07-03T11:53:34;9.80;;;3.97;;
55146;SDS011;41039;49.830;23.988;2022-07-03T11:56:02;6.30;;;4.07;;
55146;SDS011;41039;49.830;23.988;2022-07-03T12:01:06;4.63;;;3.17;;
55146;SDS011;41039;49.830;23.988;2022-07-03T12:03:31;5.88;;;4.38;;
55146;SDS011;41039;49.830;23.988;2022-07-03T12:05:57;6.20;;;3.50;;
55146;SDS011;41039;49.830;23.988;2022-07-03T12:08:27;7.35;;;4.85;;
55146;SDS011;41039;49.830;23.988;2022-07-03T12:11:03;4.72;;;3.78;;
55146;SDS011;41039;49.830;23.988;2022-07-03T12:13:28;4.63;;;4.07;;
55146;SDS011;41039;49.830;23.988;2022-07-03T12:16:00;7.78;;;5.20;;
55146;SDS011;41039;49.830;23.988;2022-07-03T12:18:26;7.13;;;5.45;;
55146;SDS011;41039;49.830;23.988;2022-07-03T12:20:51;6.60;;;4.63;;
55146;SDS011;41039;49.830;23.988;2022-07-03T12:23:16;6.55;;;4.30;;
55146;SDS011;41039;49.830;23.988;2022-07-03T12:25:41;5.32;;;4.22;;
55146;SDS011;41039;49.830;23.988;2022-07-03T12:28:08;6.50;;;4.20;;
55146;SDS011;41039;49.830;23.988;2022-07-03T12:30:34;6.30;;;4.63;;
55146;SDS011;41039;49.830;23.988;2022-07-03T12:32:59;6.38;;;4.45;;
55146;SDS011;41039;49.830;23.988;2022-07-03T12:35:25;8.32;;;4.38;;
55146;SDS011;41039;49.830;23.988;2022-07-03T12:37:50;6.18;;;4.13;;
55146;SDS011;41039;49.830;23.988;2022-07-03T12:40:16;7.07;;;5.07;;
55146;SDS011;41039;49.830;23.988;2022-07-03T12:42:48;4.95;;;4.43;;
55146;SDS011;41039;49.830;23.988;2022-07-03T12:47:39;7.95;;;5.57;;
55146;SDS011;41039;49.830;23.988;2022-07-03T12:50:05;5.57;;;4.70;;
55146;SDS011;41039;49.830;23.988;2022-07-03T12:52:31;6.57;;;4.57;;
55146;SDS011;41039;49.830;23.988;2022-07-03T12:54:58;8.27;;;4.70;;
55146;SDS011;41039;49.830;23.988;2022-07-03T12:57:24;6.25;;;4.65;;
55146;SDS011;41039;49.830;23.988;2022-07-03T13:02:34;5.10;;;4.32;;
55146;SDS011;41039;49.830;23.988;2022-07-03T13:05:00;5.90;;;4.65;;
55146;SDS011;41039;49.830;23.988;2022-07-03T13:07:29;5.60;;;5.03;;
55146;SDS011;41039;49.830;23.988;2022-07-03T13:09:55;8.35;;;5.20;;
55146;SDS011;41039;49.830;23.988;2022-07-03T13:12:21;6.33;;;5.20;;
55146;SDS011;41039;49.830;23.988;2022-07-03T13:15:08;6.15;;;4.80;;
55146;SDS011;41039;49.830;23.988;2022-07-03T13:20:16;7.07;;;4.75;;
55146;SDS011;41039;49.830;23.988;2022-07-03T13:22:42;7.53;;;4.60;;
55146;SDS011;41039;49.830;23.988;2022-07-03T13:25:07;7.13;;;4.43;;
55146;SDS011;41039;49.830;23.988;2022-07-03T13:27:32;4.95;;;4.43;;
55146;SDS011;41039;49.830;23.988;2022-07-03T13:29:57;5.50;;;4.43;;
55146;SDS011;41039;49.830;23.988;2022-07-03T13:32:23;5.23;;;4.63;;
55146;SDS011;41039;49.830;23.988;2022-07-03T13:34:48;7.53;;;4.93;;
55146;SDS011;41039;49.830;23.988;2022-07-03T13:37:13;5.63;;;5.03;;
55146;SDS011;41039;49.830;23.988;2022-07-03T13:39:38;11.23;;;5.73;;
55146;SDS011;41039;49.830;23.988;2022-07-03T13:42:04;6.97;;;4.37;;
55146;SDS011;41039;49.830;23.988;2022-07-03T13:44:30;6.38;;;5.07;;
55146;SDS011;41039;49.830;23.988;2022-07-03T13:46:55;6.28;;;5.03;;
55146;SDS011;41039;49.830;23.988;2022-07-03T13:49:20;8.88;;;5.15;;
55146;SDS011;41039;49.830;23.988;2022-07-03T13:51:46;5.93;;;5.13;;
55146;SDS011;41039;49.830;23.988;2022-07-03T13:54:11;7.20;;;5.05;;
55146;SDS011;41039;49.830;23.988;2022-07-03T13:56:36;7.17;;;4.77;;
55146;SDS011;41039;49.830;23.988;2022-07-03T13:59:01;7.63;;;4.53;;
55146;SDS011;41039;49.830;23.988;2022-07-03T14:01:27;5.63;;;5.00;;
55146;SDS011;41039;49.830;23.988;2022-07-03T14:03:52;5.57;;;4.60;;
55146;SDS011;41039;49.830;23.988;2022-07-03T14:06:17;6.90;;;4.73;;
55146;SDS011;41039;49.830;23.988;2022-07-03T14:08:43;4.43;;;3.92;;
55146;SDS011;41039;49.830;23.988;2022-07-03T14:11:08;6.30;;;4.53;;
55146;SDS011;41039;49.830;23.988;2022-07-03T14:13:33;5.63;;;4.60;;
55146;SDS011;41039;49.830;23.988;2022-07-03T14:16:01;7.57;;;4.75;;
55146;SDS011;41039;49.830;23.988;2022-07-03T14:18:27;5.28;;;4.32;;
55146;SDS011;41039;49.830;23.988;2022-07-03T14:20:52;4.83;;;4.07;;
55146;SDS011;41039;49.830;23.988;2022-07-03T14:23:17;5.80;;;4.00;;
55146;SDS011;41039;49.830;23.988;2022-07-03T14:25:42;5.87;;;4.73;;
55146;SDS011;41039;49.830;23.988;2022-07-03T14:28:08;8.77;;;4.57;;
55146;SDS011;41039;49.830;23.988;2022-07-03T14:30:51;6.53;;;4.60;;
55146;SDS011;41039;49.830;23.988;2022-07-03T14:33:35;8.00;;;4.55;;
55146;SDS011;41039;49.830;23.988;2022-07-03T14:36:00;5.70;;;4.57;;
55146;SDS011;41039;49.830;23.988;2022-07-03T14:38:26;6.13;;;5.10;;
55146;SDS011;41039;49.830;23.988;2022-07-03T14:40:51;6.57;;;4.70;;
55146;SDS011;41039;49.830;23.988;2022-07-03T14:43:16;6.13;;;4.88;;
55146;SDS011;41039;49.830;23.988;2022-07-03T14:45:42;6.28;;;4.32;;
55146;SDS011;41039;49.830;23.988;2022-07-03T14:48:07;5.67;;;4.43;;
55146;SDS011;41039;49.830;23.988;2022-07-03T14:50:33;7.25;;;4.25;;
55146;SDS011;41039;49.830;23.988;2022-07-03T14:52:58;6.88;;;4.60;;
55146;SDS011;41039;49.830;23.988;2022-07-03T14:55:23;6.17;;;4.50;;
55146;SDS011;41039;49.830;23.988;2022-07-03T14:57:55;6.93;;;4.47;;
55146;SDS011;41039;49.830;23.988;2022-07-03T15:00:23;5.25;;;4.05;;
55146;SDS011;41039;49.830;23.988;2022-07-03T15:03:04;6.38;;;4.25;;
55146;SDS011;41039;49.830;23.988;2022-07-03T15:05:30;8.10;;;4.70;;
55146;SDS011;41039;49.830;23.988;2022-07-03T15:10:37;9.00;;;6.18;;
55146;SDS011;41039;49.830;23.988;2022-07-03T15:13:03;5.60;;;4.40;;
55146;SDS011;41039;49.830;23.988;2022-07-03T15:15:29;5.28;;;4.47;;
55146;SDS011;41039;49.830;23.988;2022-07-03T15:17:54;7.45;;;4.15;;
55146;SDS011;41039;49.830;23.988;2022-07-03T15:20:21;6.00;;;4.38;;
55146;SDS011;41039;49.830;23.988;2022-07-03T15:22:48;5.20;;;4.70;;
55146;SDS011;41039;49.830;23.988;2022-07-03T15:25:16;7.15;;;5.05;;
55146;SDS011;41039;49.830;23.988;2022-07-03T15:27:42;6.57;;;4.90;;
55146;SDS011;41039;49.830;23.988;2022-07-03T15:30:09;6.47;;;4.10;;
55146;SDS011;41039;49.830;23.988;2022-07-03T15:32:36;6.38;;;4.75;;
55146;SDS011;41039;49.830;23.988;2022-07-03T15:35:01;5.53;;;4.60;;
55146;SDS011;41039;49.830;23.988;2022-07-03T15:40:04;6.13;;;3.75;;
55146;SDS011;41039;49.830;23.988;2022-07-03T15:47:31;6.28;;;5.10;;
55146;SDS011;41039;49.830;23.988;2022-07-03T15:50:00;5.28;;;4.63;;